Fort Myers, FL (33913)

9:09 PM EDT on September 19, 2014 (GMT -0400)
Carriedale | Change Station
CLOSE
Current Station
Personal Weather Station
Location: Fort Myers, FL
Elevation: 16 ft
Nearby Weather Stations

Elev 16 ft 26.52 °N, 81.82 °W | Updated 13 minutes ago

Partly Cloudy
Partly Cloudy
77.3 °F
Feels Like 79 °F
N
0.0
Wind Variable Wind from SSE
Gusts 0.0 mph

Today
High -- | Low -- °F
--% Chance of Precip.
Yesterday
High -- | Low -- °F
Precip. -- in
7:14 AM 7:26 PM
Waning Crescent, 15% visible
Pressure 29.93 in
Visibility 10.0 miles
Clouds Few 11000 ft
Heat Index 79 °F
Dew Point 75 °F
Humidity 93%
Rainfall 0.20 in
Snow Depth Not available.
UV 0 out of 12
Pollen 2.40 out of 12
Air Quality Not available.
Flu Activity Not available.
METAR KRSW 200053Z AUTO 21003KT 10SM FEW110 25/18 A2993 RMK AO2 RAB12E44 SLP134 P0000 T02500178

More Conditions Fewer Conditions

Pressure 29.93 in
Visibility 10.0 miles
Clouds Few 11000 ft
Heat Index 79 °F
Dew Point 75 °F
Humidity 93%
Rainfall 0.20 in
Snow Depth Not available.
UV 0 out of 12
Pollen 2.40 out of 12
Air Quality Not available.
Flu Activity Not available.
METAR KRSW 200053Z AUTO 21003KT 10SM FEW110 25/18 A2993 RMK AO2 RAB12E44 SLP134 P0000 T02500178

More Conditions Fewer Conditions

10-Day Weather Forecast

Almanac

Astronomy

Sep. 19, 2014 Rise Set
Actual Time 7:14 AM EDT 7:26 PM EDT
Civil Twilight 6:51 AM EDT 7:49 PM EDT
Nautical Twilight 6:24 AM EDT 8:16 PM EDT
Astronomical Twilight 5:56 AM EDT 8:44 PM EDT
Moon 3:17 AM EDT (9/19) 4:38 PM EDT (9/19)
Length of Visible Light 12h 58m
Length of Day
12h 12m
Tomorrow will be 1m 32s shorter.
Waning Crescent, 15% of the Moon is Illuminated
Today
Waning Crescent
Sep 24
New
Oct 1
First Quarter
Oct 8
Full
Oct 15
Last Quarter

Today's Extremes

State Highs State Lows

Community

WunderPhotos

Upload Photos

1,754,756 photos uploaded!

WunderBlogs® & News

Nearby

Snow Depth

Station Depth Elevation
No new snow has been reported.

Earthquake Activity

City Distance Mag. Time & Date
No recent earthquake activity has been reported nearby.
Minimum magnitude displayed is 2.5.

Coastal Water Temperatures

Place Temperature
Fort Myers, FL 84.9 °F
Naples, FL 88.0 °F

Nearby Weather Stations